Bruceville, Texas
Current Conditions -  °F | °C
As of 3:35 AM on Friday 24 Oct 2014 (Local Time) from KPWG Reporting Station
Few Clouds Few Clouds  
Wind Chill: 63°   Ceiling: Unl
Heat Index: 63°   Visibility: 10mi
Dew Point: 52°   Wind: 5mph
Humidity: 68%   Direction: 190°S
Pressure: 30.14"   Gusts: NA
Location:  31.32°N, 97.24°W
Report Text: KPWG 240835Z AUTO 19004KT 10SM FEW085 17/11 A3014 RMK AO1
Loading
Personal Weather Stations






























Interactive Weather Map
Tropical Storm Tracking
New forecast layout! Learn more

10-Day Weather Forecast

Advertisements
Track Severe Weather on mobile